Time;durP1;ratioP1;P1;durP2;ratioP2;P2;SDS_P1;SDS_P2;PMS_P1;PMS_P2;Temp;Humidity;BMP_temperature;BMP_pressure;BME280_temperature;BME280_humidity;BME280_pressure;Samples;Min_cycle;Max_cycle;Signal;HPM_P1;HPM_P2
2021/11/09 00:00:45;;;;;;;16.42;10.70;;;8.00;99.90;;;;;;5111768;28;20039;-65
2021/11/09 00:03:11;;;;;;;15.60;10.52;;;8.00;99.90;;;;;;5112743;28;20057;-66
2021/11/09 00:05:54;;;;;;;21.40;10.23;;;7.90;99.90;;;;;;5111130;28;20271;-66
2021/11/09 00:08:28;;;;;;;16.90;9.50;;;7.90;99.90;;;;;;5112699;28;20092;-66
2021/11/09 00:10:55;;;;;;;20.05;9.80;;;8.00;99.90;;;;;;5112456;28;20085;-66
2021/11/09 00:13:21;;;;;;;14.10;9.82;;;8.00;99.90;;;;;;5111307;28;20039;-66
2021/11/09 00:15:48;;;;;;;23.45;10.38;;;8.00;99.90;;;;;;5111815;28;20026;-67
2021/11/09 00:18:15;;;;;;;17.65;10.30;;;8.00;99.90;;;;;;5112233;28;20249;-67
2021/11/09 00:20:41;;;;;;;15.82;10.10;;;8.00;99.90;;;;;;5112994;28;20047;-67
2021/11/09 00:23:09;;;;;;;19.75;10.43;;;8.00;99.90;;;;;;5087074;28;20043;-66
2021/11/09 00:25:36;;;;;;;17.13;10.10;;;8.00;99.90;;;;;;5112259;28;20448;-66
2021/11/09 00:28:03;;;;;;;15.65;10.52;;;8.00;99.90;;;;;;5110747;28;20038;-66
2021/11/09 00:30:30;;;;;;;17.42;10.57;;;8.10;99.90;;;;;;5112310;28;20019;-66
2021/11/09 00:32:56;;;;;;;18.33;11.45;;;8.10;99.90;;;;;;5111779;28;20038;-66
2021/11/09 00:35:25;;;;;;;16.80;10.68;;;8.10;99.90;;;;;;5108476;28;20019;-66
2021/11/09 00:37:52;;;;;;;28.42;12.82;;;8.10;99.90;;;;;;5112790;28;20024;-66
2021/11/09 00:40:20;;;;;;;20.13;9.95;;;8.20;99.90;;;;;;5090172;28;20058;-66
2021/11/09 00:42:46;;;;;;;18.38;10.88;;;8.20;99.90;;;;;;5088476;28;20358;-66
2021/11/09 00:45:14;;;;;;;18.05;10.55;;;8.20;99.90;;;;;;5090820;28;20020;-67
2021/11/09 00:47:43;;;;;;;15.95;10.63;;;8.20;99.90;;;;;;5091605;28;20020;-66
2021/11/09 00:50:10;;;;;;;17.63;10.60;;;8.20;99.90;;;;;;5092455;28;20031;-67
2021/11/09 00:52:38;;;;;;;19.83;11.35;;;8.10;99.90;;;;;;5091428;28;20316;-66
2021/11/09 00:55:05;;;;;;;18.73;10.73;;;8.20;99.90;;;;;;5093035;28;20131;-66
2021/11/09 00:57:31;;;;;;;18.08;10.95;;;8.20;99.90;;;;;;5092227;28;20035;-66
2021/11/09 00:59:56;;;;;;;18.67;10.88;;;8.20;99.90;;;;;;5092379;28;20383;-66
2021/11/09 01:02:22;;;;;;;18.63;11.35;;;8.20;99.90;;;;;;5090809;28;20032;-66
2021/11/09 01:04:48;;;;;;;21.30;12.00;;;8.20;99.90;;;;;;5091827;28;20032;-66
2021/11/09 01:07:14;;;;;;;22.33;10.85;;;8.20;99.90;;;;;;5090126;28;20476;-66
2021/11/09 01:09:40;;;;;;;16.92;10.77;;;8.20;99.90;;;;;;5088458;28;20150;-66
2021/11/09 01:12:08;;;;;;;16.40;10.00;;;8.20;99.90;;;;;;5091117;28;20028;-66
2021/11/09 01:14:34;;;;;;;18.27;10.38;;;8.20;99.90;;;;;;5088830;28;20043;-66
2021/11/09 01:17:00;;;;;;;13.90;9.23;;;8.20;99.90;;;;;;5092505;28;20070;-66
2021/11/09 01:19:27;;;;;;;16.30;10.38;;;8.20;99.90;;;;;;5091479;28;20015;-66
2021/11/09 01:21:53;;;;;;;17.02;9.85;;;8.20;99.90;;;;;;5091487;28;20050;-66
2021/11/09 01:24:19;;;;;;;17.73;11.18;;;8.20;99.90;;;;;;5090989;28;20024;-66
2021/11/09 01:26:46;;;;;;;15.85;9.55;;;8.20;99.90;;;;;;5087262;28;20372;-67
2021/11/09 01:29:13;;;;;;;16.70;10.80;;;8.20;99.90;;;;;;5088428;28;20024;-67
2021/11/09 01:31:40;;;;;;;20.75;11.70;;;8.20;99.90;;;;;;5092144;28;20043;-67
2021/11/09 01:34:06;;;;;;;18.55;11.15;;;8.20;99.90;;;;;;5089004;28;20353;-67
2021/11/09 01:36:32;;;;;;;19.35;11.20;;;8.20;99.90;;;;;;5091259;28;20032;-67
2021/11/09 01:38:58;;;;;;;18.88;10.45;;;8.20;99.90;;;;;;5096199;28;20434;-66
2021/11/09 01:41:26;;;;;;;18.02;10.55;;;8.30;99.90;;;;;;5109422;28;20047;-67
2021/11/09 01:43:53;;;;;;;19.17;11.00;;;8.30;99.90;;;;;;5085871;28;20047;-66
2021/11/09 01:46:20;;;;;;;17.10;10.57;;;8.30;99.90;;;;;;5108079;28;20051;-67
2021/11/09 01:48:46;;;;;;;16.75;10.38;;;8.30;99.90;;;;;;5112205;28;20109;-66
2021/11/09 01:51:16;;;;;;;18.70;10.63;;;8.30;99.90;;;;;;5109442;28;20055;-66
2021/11/09 01:53:45;;;;;;;17.45;11.25;;;8.30;99.90;;;;;;5111620;28;20028;-66
2021/11/09 01:56:15;;;;;;;16.17;10.20;;;8.30;99.90;;;;;;5105950;28;20024;-66
2021/11/09 01:58:42;;;;;;;16.42;9.93;;;8.30;99.90;;;;;;5110708;28;20315;-67
2021/11/09 02:01:13;;;;;;;21.33;11.73;;;8.30;99.90;;;;;;5109110;28;20027;-67
2021/11/09 02:03:43;;;;;;;14.50;10.13;;;8.30;99.90;;;;;;5110698;28;20050;-66
2021/11/09 02:06:10;;;;;;;;;;;8.30;99.90;;;;;;5109062;28;20103;-66
2021/11/09 02:08:37;;;;;;;18.90;10.50;;;8.30;99.90;;;;;;5112273;28;19925;-66
2021/11/09 02:11:03;;;;;;;14.95;10.23;;;8.30;99.90;;;;;;5108092;28;20036;-67
2021/11/09 02:13:30;;;;;;;19.73;11.38;;;8.30;99.90;;;;;;5110404;28;20027;-66
2021/11/09 02:15:57;;;;;;;17.98;11.57;;;8.30;99.90;;;;;;5105869;28;20051;-66
2021/11/09 02:18:24;;;;;;;17.30;10.20;;;8.30;99.90;;;;;;5092828;28;20039;-67
2021/11/09 02:20:54;;;;;;;16.98;10.73;;;8.30;99.90;;;;;;5084638;28;20032;-67
2021/11/09 02:23:20;;;;;;;18.02;11.07;;;8.30;99.90;;;;;;5110949;28;20071;-66
2021/11/09 02:25:46;;;;;;;17.15;10.85;;;8.30;99.90;;;;;;5091066;28;20246;-66
2021/11/09 02:28:12;;;;;;;20.10;11.00;;;8.30;99.90;;;;;;5112335;28;20031;-67
2021/11/09 02:30:38;;;;;;;18.40;10.55;;;8.40;99.90;;;;;;5108736;28;20043;-66
2021/11/09 02:33:04;;;;;;;18.05;11.35;;;8.40;99.90;;;;;;5092064;28;20043;-65
2021/11/09 02:35:30;;;;;;;16.73;10.38;;;8.40;99.90;;;;;;5108190;28;20131;-66
2021/11/09 02:37:58;;;;;;;16.80;9.45;;;8.40;99.90;;;;;;5111781;28;20076;-67
2021/11/09 02:40:25;;;;;;;18.45;10.35;;;8.40;99.90;;;;;;5108379;28;20043;-66
2021/11/09 02:42:55;;;;;;;17.48;9.60;;;8.40;99.90;;;;;;5107032;28;20047;-66
2021/11/09 02:45:40;;;;;;;15.48;11.00;;;8.40;99.90;;;;;;5108313;28;20281;-66
2021/11/09 02:48:31;;;;;;;16.05;10.63;;;8.40;99.90;;;;;;5110242;28;20039;-66
2021/11/09 02:51:12;;;;;;;20.27;11.38;;;8.40;99.90;;;;;;5108861;28;20051;-66
2021/11/09 02:53:55;;;;;;;17.17;11.05;;;8.40;99.90;;;;;;5110634;28;20027;-67
2021/11/09 03:04:45;;;;;;;18.75;11.05;;;8.40;99.90;;;;;;5108981;28;20095;-67
2021/11/09 03:07:22;;;;;;;15.70;9.90;;;8.50;99.90;;;;;;5090369;28;20040;-67
2021/11/09 03:09:57;;;;;;;17.23;10.48;;;8.50;99.90;;;;;;5110420;28;20027;-66
2021/11/09 03:12:36;;;;;;;16.67;9.07;;;8.50;99.90;;;;;;5108855;28;20027;-67
2021/11/09 03:15:05;;;;;;;18.95;10.68;;;8.50;99.90;;;;;;5108923;28;20035;-66
2021/11/09 03:17:52;;;;;;;18.70;9.98;;;8.50;99.90;;;;;;5108445;28;20395;-67
2021/11/09 03:20:33;;;;;;;19.75;10.10;;;8.50;99.90;;;;;;5110335;28;20058;-67
2021/11/09 03:45:09;;;;;;;14.32;7.95;;;8.60;99.90;;;;;;5113625;28;20304;-67
2021/11/09 03:47:48;;;;;;;17.70;7.68;;;8.60;99.90;;;;;;5112983;28;20507;-67
2021/11/09 03:50:17;;;;;;;13.95;8.02;;;8.60;99.90;;;;;;5112072;28;20224;-67
2021/11/09 03:52:57;;;;;;;22.83;7.90;;;8.60;99.90;;;;;;5114367;28;20066;-66
2021/11/09 03:56:06;;;;;;;16.42;7.47;;;8.60;99.90;;;;;;5111602;28;20047;-66
2021/11/09 04:01:49;;;;;;;16.35;7.50;;;8.60;99.90;;;;;;5110447;28;20015;-67
2021/11/09 04:11:34;;;;;;;13.38;5.25;;;8.70;99.90;;;;;;5108279;27;20373;-67
2021/11/09 04:25:09;;;;;;;11.68;4.95;;;8.70;99.90;;;;;;5113943;28;20054;-66
2021/11/09 05:10:22;;;;;;;9.23;2.38;;;8.90;99.90;;;;;;5109474;28;20024;-73
2021/11/09 05:12:48;;;;;;;10.43;2.58;;;8.90;99.90;;;;;;5109759;27;20035;-72
2021/11/09 05:15:14;;;;;;;8.38;2.03;;;8.90;99.90;;;;;;5106952;28;20226;-72
2021/11/09 05:17:39;;;;;;;13.15;2.70;;;8.90;99.90;;;;;;5111177;28;20042;-72
2021/11/09 05:20:06;;;;;;;7.43;1.77;;;8.90;99.90;;;;;;5110056;28;20241;-72
2021/11/09 05:22:31;;;;;;;15.50;2.17;;;9.00;99.90;;;;;;5110830;28;20114;-72
2021/11/09 05:24:58;;;;;;;10.48;1.80;;;9.10;99.90;;;;;;5109870;28;20215;-72
2021/11/09 05:27:27;;;;;;;7.85;1.88;;;9.10;99.90;;;;;;5108563;28;20031;-72
2021/11/09 05:29:53;;;;;;;5.10;1.50;;;9.10;99.90;;;;;;5103400;28;20068;-72
2021/11/09 05:32:20;;;;;;;7.75;1.75;;;9.20;99.90;;;;;;5107746;28;20190;-72
2021/11/09 05:34:45;;;;;;;7.28;1.70;;;9.20;99.90;;;;;;5106538;28;20204;-72
2021/11/09 05:37:13;;;;;;;9.52;1.42;;;9.20;99.90;;;;;;5087304;28;20060;-72
2021/11/09 05:39:49;;;;;;;9.27;1.75;;;9.30;99.90;;;;;;5105211;27;20298;-72
2021/11/09 05:42:15;;;;;;;9.77;1.90;;;9.30;99.90;;;;;;5107498;28;20043;-72
2021/11/09 05:44:42;;;;;;;4.40;1.40;;;9.30;99.90;;;;;;5092877;28;20015;-72
2021/11/09 05:47:08;;;;;;;6.00;1.92;;;9.40;99.90;;;;;;5109957;28;20058;-72
2021/11/09 05:49:34;;;;;;;16.02;1.92;;;9.40;99.90;;;;;;5111155;28;20234;-72
2021/11/09 05:52:01;;;;;;;15.98;2.00;;;9.40;99.90;;;;;;5111317;28;20093;-72
2021/11/09 05:54:27;;;;;;;11.20;1.50;;;9.50;99.90;;;;;;5111380;28;20015;-72
2021/11/09 05:56:53;;;;;;;6.95;1.70;;;9.50;99.90;;;;;;5110215;28;20628;-73
2021/11/09 05:59:19;;;;;;;14.80;2.17;;;9.50;99.90;;;;;;5111052;28;20036;-72
2021/11/09 06:01:47;;;;;;;7.65;1.48;;;9.50;99.90;;;;;;5106458;28;20035;-72
2021/11/09 06:04:13;;;;;;;16.33;2.20;;;9.60;99.90;;;;;;5111068;28;20168;-72
2021/11/09 06:06:39;;;;;;;8.57;1.67;;;9.60;99.90;;;;;;5111587;28;20027;-72
2021/11/09 06:09:05;;;;;;;6.72;1.67;;;9.60;99.90;;;;;;5110451;28;20203;-72
2021/11/09 06:11:31;;;;;;;11.75;1.83;;;9.70;99.90;;;;;;5107557;28;20016;-72
2021/11/09 06:13:57;;;;;;;6.88;1.35;;;9.70;99.90;;;;;;5112048;28;20341;-72
2021/11/09 06:16:23;;;;;;;6.07;1.55;;;9.70;99.90;;;;;;5109604;28;20026;-72
2021/11/09 06:18:49;;;;;;;12.43;1.85;;;9.80;99.90;;;;;;5109309;28;20032;-72
2021/11/09 06:21:15;;;;;;;10.18;2.10;;;9.80;99.90;;;;;;5111592;28;20031;-72
2021/11/09 06:23:41;;;;;;;11.82;1.75;;;9.80;99.90;;;;;;5111044;28;20386;-72
2021/11/09 06:26:08;;;;;;;12.57;1.75;;;9.90;99.90;;;;;;5108715;28;20091;-72
2021/11/09 06:28:34;;;;;;;10.60;1.77;;;9.90;99.90;;;;;;5110390;28;20341;-72
2021/11/09 06:31:00;;;;;;;18.52;2.50;;;10.00;99.90;;;;;;5112056;28;20024;-73
2021/11/09 06:33:26;;;;;;;13.88;3.33;;;10.00;99.90;;;;;;5108492;28;20051;-72
2021/11/09 06:35:52;;;;;;;17.50;3.35;;;10.00;99.90;;;;;;5110835;28;20052;-72
2021/11/09 06:38:19;;;;;;;17.83;2.90;;;10.10;99.90;;;;;;5111665;28;20469;-72
2021/11/09 06:40:46;;;;;;;19.20;3.15;;;10.20;99.90;;;;;;5111199;28;20322;-72
2021/11/09 06:43:12;;;;;;;12.40;2.47;;;10.20;99.90;;;;;;5111353;28;20047;-72
2021/11/09 06:45:38;;;;;;;19.38;3.03;;;10.20;99.90;;;;;;5108942;28;20560;-72
2021/11/09 06:48:05;;;;;;;18.63;3.50;;;10.30;99.90;;;;;;5091927;28;20035;-72
2021/11/09 06:50:32;;;;;;;20.60;4.25;;;10.30;99.90;;;;;;5111548;28;20027;-72
2021/11/09 06:52:58;;;;;;;26.02;4.43;;;10.30;99.90;;;;;;5110772;28;20094;-72
2021/11/09 06:55:24;;;;;;;20.13;4.20;;;10.40;99.90;;;;;;5110775;28;20073;-72
2021/11/09 06:57:50;;;;;;;21.08;4.10;;;10.50;99.90;;;;;;5110010;28;20028;-72
2021/11/09 07:00:21;;;;;;;21.10;4.22;;;10.50;99.90;;;;;;5112584;28;20292;-72
2021/11/09 07:02:47;;;;;;;26.80;4.43;;;10.50;99.90;;;;;;5107057;28;20057;-72
2021/11/09 07:05:17;;;;;;;25.27;5.35;;;10.60;99.90;;;;;;5112602;28;20368;-72
2021/11/09 07:07:44;;;;;;;22.92;5.03;;;10.50;99.90;;;;;;5114560;28;20038;-72
2021/11/09 07:10:11;;;;;;;22.65;4.50;;;10.50;99.90;;;;;;5115393;28;20028;-72
2021/11/09 07:12:37;;;;;;;23.25;5.18;;;10.50;99.90;;;;;;5113549;28;20399;-72
2021/11/09 07:15:05;;;;;;;17.77;4.50;;;10.50;99.90;;;;;;5116041;28;20032;-72
2021/11/09 07:17:31;;;;;;;23.63;5.03;;;10.50;99.90;;;;;;5115225;28;20024;-72
2021/11/09 07:19:58;;;;;;;22.17;5.13;;;10.50;99.90;;;;;;5115385;28;20024;-72
2021/11/09 07:22:25;;;;;;;26.63;5.75;;;10.50;99.90;;;;;;5114009;28;20458;-72
2021/11/09 07:24:51;;;;;;;19.65;5.28;;;10.50;99.90;;;;;;5097230;28;20030;-72
2021/11/09 07:27:17;;;;;;;27.40;4.82;;;10.50;99.90;;;;;;5113822;28;20035;-72
2021/11/09 07:29:50;;;;;;;22.92;5.53;;;10.50;99.90;;;;;;5115005;28;20023;-72
2021/11/09 07:32:18;;;;;;;24.60;5.97;;;10.50;99.90;;;;;;5115105;28;20110;-72
2021/11/09 07:34:44;;;;;;;24.73;5.05;;;10.50;99.90;;;;;;5114290;28;20023;-72
2021/11/09 07:37:11;;;;;;;21.42;5.07;;;10.50;99.90;;;;;;5115728;28;20035;-72
2021/11/09 07:39:37;;;;;;;21.67;6.10;;;10.50;99.90;;;;;;5114662;28;20221;-72
2021/11/09 07:42:04;;;;;;;31.95;7.68;;;10.50;99.90;;;;;;5103538;28;20074;-72
2021/11/09 07:44:29;;;;;;;26.33;6.32;;;10.50;99.90;;;;;;5114052;28;20348;-72
2021/11/09 07:46:56;;;;;;;21.80;6.43;;;10.50;99.90;;;;;;5114995;28;20046;-72
2021/11/09 07:49:22;;;;;;;28.98;7.50;;;10.50;99.90;;;;;;5113557;28;20020;-72
2021/11/09 07:51:49;;;;;;;25.60;7.10;;;10.50;99.90;;;;;;5088175;28;20147;-72
2021/11/09 07:54:17;;;;;;;44.75;7.72;;;10.50;99.90;;;;;;5114462;28;20026;-72
2021/11/09 07:56:43;;;;;;;25.10;5.82;;;10.50;99.90;;;;;;5112586;28;20027;-72
2021/11/09 08:01:49;;;;;;;30.95;7.72;;;10.50;99.90;;;;;;5114923;28;20319;-72
2021/11/09 08:05:01;;;;;;;;;;;10.50;99.90;;;;;;5114139;28;20073;-72
2021/11/09 08:07:10;;;;;;;28.80;5.95;;;10.50;99.90;;;;;;5102080;27;19911;-72
2021/11/09 08:09:37;;;;;;;26.75;6.07;;;10.50;99.90;;;;;;5093381;28;20034;-72
2021/11/09 08:12:05;;;;;;;31.55;6.85;;;10.40;99.90;;;;;;5113849;28;20068;-72
2021/11/09 08:14:31;;;;;;;31.00;6.10;;;10.40;99.90;;;;;;5111732;28;20012;-72
2021/11/09 08:16:58;;;;;;;35.28;7.05;;;10.40;99.90;;;;;;5114090;27;20221;-72
2021/11/09 08:19:23;;;;;;;34.60;6.40;;;10.40;99.90;;;;;;5110425;28;20091;-72
2021/11/09 08:21:51;;;;;;;36.63;7.13;;;10.30;99.90;;;;;;5114428;28;20066;-72
2021/11/09 08:24:20;;;;;;;30.42;6.53;;;10.30;99.90;;;;;;5114540;28;20098;-72
2021/11/09 08:26:46;;;;;;;34.53;7.10;;;10.30;99.90;;;;;;5109248;28;20019;-72
2021/11/09 08:29:13;;;;;;;33.50;6.97;;;10.30;99.90;;;;;;5114007;28;20038;-72
2021/11/09 08:31:43;;;;;;;35.92;7.45;;;10.30;99.90;;;;;;5112454;28;20011;-72
2021/11/09 08:34:09;;;;;;;42.67;7.65;;;10.30;99.90;;;;;;5113423;28;20099;-72
2021/11/09 08:36:36;;;;;;;35.45;6.05;;;10.30;99.90;;;;;;5113801;28;20028;-71
2021/11/09 08:39:06;;;;;;;35.60;7.10;;;10.40;99.90;;;;;;5112675;28;20055;-72
2021/11/09 08:41:46;;;;;;;34.65;6.85;;;10.40;99.90;;;;;;5112028;28;20231;-72
2021/11/09 08:44:16;;;;;;;40.78;7.88;;;10.40;99.90;;;;;;5113255;28;20039;-72
2021/11/09 08:46:49;;;;;;;33.17;8.38;;;10.40;99.90;;;;;;5113968;28;20027;-72
2021/11/09 08:49:19;;;;;;;34.67;7.35;;;10.50;99.90;;;;;;5112056;28;20028;-72
2021/11/09 08:51:46;;;;;;;36.67;7.55;;;10.60;99.90;;;;;;5113605;28;20027;-72
2021/11/09 08:54:17;;;;;;;29.33;6.65;;;10.60;99.90;;;;;;5113153;28;20027;-72
2021/11/09 09:04:59;;;;;;;30.83;7.63;;;10.80;99.90;;;;;;5091957;28;20195;-72
2021/11/09 09:07:29;;;;;;;28.55;6.93;;;10.80;99.90;;;;;;5112874;28;20370;-72
2021/11/09 09:09:56;;;;;;;34.65;6.53;;;10.80;99.90;;;;;;5111476;28;20034;-72
2021/11/09 09:12:28;;;;;;;28.67;6.57;;;10.80;99.90;;;;;;5113370;28;20214;-72
2021/11/09 09:14:54;;;;;;;34.10;7.85;;;10.90;99.90;;;;;;5112871;28;20023;-72
2021/11/09 09:17:21;;;;;;;35.95;7.68;;;10.90;99.90;;;;;;5113819;28;20249;-72
2021/11/09 09:19:52;;;;;;;35.40;7.57;;;10.90;99.90;;;;;;5112935;28;20417;-71
2021/11/09 09:22:22;;;;;;;40.72;7.97;;;10.90;99.90;;;;;;5111965;28;20102;-72
2021/11/09 09:25:16;;;;;;;37.22;7.45;;;10.90;99.90;;;;;;5111716;28;20260;-72
2021/11/09 09:27:55;;;;;;;35.30;7.32;;;11.00;99.90;;;;;;5109438;28;20583;-72
2021/11/09 09:30:32;;;;;;;33.75;6.80;;;11.00;99.90;;;;;;5112767;28;20023;-72
2021/11/09 09:33:11;;;;;;;29.73;8.32;;;11.00;99.90;;;;;;5110536;28;20028;-72
2021/11/09 09:57:22;;;;;;;40.65;11.43;;;11.10;99.90;;;;;;5110583;28;20362;-72
2021/11/09 09:59:49;;;;;;;49.80;12.50;;;11.00;99.90;;;;;;5112575;28;20027;-72
2021/11/09 10:02:29;;;;;;;49.65;12.13;;;11.10;99.90;;;;;;5110523;28;20325;-72
2021/11/09 10:05:10;;;;;;;56.75;14.57;;;11.10;99.90;;;;;;5112300;28;20357;-72
2021/11/09 10:07:38;;;;;;;53.80;12.02;;;11.10;99.90;;;;;;5112674;28;20027;-72
2021/11/09 10:10:10;;;;;;;51.08;12.73;;;11.10;99.90;;;;;;5112621;28;20227;-72
2021/11/09 10:12:44;;;;;;;47.97;11.90;;;11.10;99.90;;;;;;5109706;28;20054;-72
2021/11/09 10:15:19;;;;;;;45.47;11.48;;;11.10;99.90;;;;;;5111741;28;20027;-72
2021/11/09 10:17:47;;;;;;;61.85;12.93;;;11.20;99.90;;;;;;5110252;28;20035;-72
2021/11/09 10:20:19;;;;;;;45.83;10.75;;;11.20;99.90;;;;;;5086527;28;20027;-72
2021/11/09 10:22:49;;;;;;;43.63;11.45;;;11.20;99.90;;;;;;5093192;28;20126;-72
2021/11/09 10:25:16;;;;;;;;;;;11.20;99.90;;;;;;5094263;28;20214;-72
2021/11/09 10:27:44;;;;;;;48.25;12.25;;;11.20;99.90;;;;;;5110853;28;19907;-72
2021/11/09 10:30:14;;;;;;;53.25;12.07;;;11.20;99.90;;;;;;5110304;28;20027;-71
2021/11/09 10:32:40;;;;;;;44.45;12.07;;;11.20;99.90;;;;;;5112016;28;20024;-72
2021/11/09 10:35:09;;;;;;;39.60;12.23;;;11.20;99.90;;;;;;5109206;28;20024;-72
2021/11/09 10:37:40;;;;;;;52.72;12.15;;;11.30;99.90;;;;;;5093338;28;20172;-72
2021/11/09 10:40:22;;;;;;;53.85;11.85;;;11.30;99.90;;;;;;5115697;28;20081;-72
2021/11/09 10:42:50;;;;;;;48.85;11.82;;;11.40;99.90;;;;;;5114781;28;20059;-72
2021/11/09 10:45:20;;;;;;;46.65;11.98;;;11.40;99.90;;;;;;5095633;28;20035;-72
2021/11/09 10:47:58;;;;;;;43.17;12.90;;;11.40;99.90;;;;;;5114297;28;20034;-71
2021/11/09 10:50:37;;;;;;;49.67;13.20;;;11.40;99.90;;;;;;5116670;28;20032;-71
2021/11/09 10:53:17;;;;;;;51.70;13.45;;;11.50;99.90;;;;;;5113447;28;20439;-71
2021/11/09 10:58:53;;;;;;;43.83;12.38;;;11.50;99.90;;;;;;5116046;28;20051;-71
2021/11/09 11:06:29;;;;;;;48.08;13.25;;;11.50;99.90;;;;;;5115864;28;20093;-71
2021/11/09 11:09:10;;;;;;;56.65;13.48;;;11.50;99.90;;;;;;5097552;28;20030;-71
2021/11/09 11:11:40;;;;;;;48.08;13.30;;;11.60;99.90;;;;;;5114493;28;20047;-72
2021/11/09 11:14:09;;;;;;;46.03;13.25;;;11.60;99.90;;;;;;5115574;28;20031;-71
2021/11/09 11:16:57;;;;;;;48.85;13.90;;;11.60;99.90;;;;;;5097079;28;20031;-71
2021/11/09 11:19:25;;;;;;;46.83;13.02;;;11.60;99.90;;;;;;5113974;28;20341;-71
2021/11/09 11:21:51;;;;;;;45.65;15.05;;;11.60;99.90;;;;;;5114298;28;20337;-71
2021/11/09 11:24:18;;;;;;;51.42;14.27;;;11.60;99.90;;;;;;5115099;28;20024;-71
2021/11/09 11:26:46;;;;;;;42.72;13.90;;;11.60;99.90;;;;;;5114209;28;20334;-71
2021/11/09 11:29:20;;;;;;;56.30;14.23;;;11.60;99.90;;;;;;5114086;28;20230;-71
2021/11/09 11:31:46;;;;;;;48.10;14.05;;;11.70;99.90;;;;;;5115334;28;20103;-71
2021/11/09 11:34:13;;;;;;;49.55;13.95;;;11.70;99.90;;;;;;5113766;28;20266;-71
2021/11/09 11:36:39;;;;;;;48.05;13.30;;;11.70;99.90;;;;;;5113299;28;20019;-72
2021/11/09 11:39:08;;;;;;;37.55;14.00;;;11.70;99.90;;;;;;5114663;28;20336;-72
2021/11/09 11:41:37;;;;;;;41.00;14.43;;;11.70;99.90;;;;;;5094241;28;20024;-71
2021/11/09 11:44:08;;;;;;;41.50;14.45;;;11.70;99.90;;;;;;5114899;28;20046;-72
2021/11/09 11:46:34;;;;;;;46.40;14.52;;;11.70;99.90;;;;;;5115117;28;20023;-72
2021/11/09 11:49:10;;;;;;;55.15;16.13;;;11.70;99.90;;;;;;5114929;28;20100;-71
2021/11/09 11:51:44;;;;;;;41.97;15.63;;;11.70;99.90;;;;;;5113554;28;20289;-71
2021/11/09 11:54:11;;;;;;;50.50;17.08;;;11.70;99.90;;;;;;5113965;28;20019;-72
2021/11/09 11:56:41;;;;;;;43.65;16.95;;;11.70;99.90;;;;;;5113803;28;20089;-71
2021/11/09 11:59:22;;;;;;;47.97;17.00;;;11.70;99.90;;;;;;5113276;28;20047;-71
2021/11/09 12:01:58;;;;;;;39.08;15.82;;;11.70;99.90;;;;;;5115217;27;20381;-71
2021/11/09 12:04:43;;;;;;;39.22;15.60;;;11.70;99.90;;;;;;5113543;28;20042;-71
2021/11/09 12:07:11;;;;;;;36.47;17.17;;;11.70;99.90;;;;;;5112532;28;20032;-72
2021/11/09 12:09:39;;;;;;;35.97;15.75;;;11.70;99.90;;;;;;5113592;28;20059;-71
2021/11/09 12:12:17;;;;;;;41.00;16.55;;;11.70;99.90;;;;;;5109037;28;20422;-72
2021/11/09 12:14:57;;;;;;;33.58;16.88;;;11.70;99.90;;;;;;5113524;28;20032;-71
2021/11/09 12:17:39;;;;;;;44.83;17.65;;;11.70;99.90;;;;;;5114171;28;20092;-72
2021/11/09 12:20:19;;;;;;;42.83;17.30;;;11.80;99.90;;;;;;5112223;28;20138;-71
2021/11/09 12:22:54;;;;;;;44.25;18.52;;;11.80;99.90;;;;;;5114231;28;20031;-71
2021/11/09 12:25:32;;;;;;;38.05;16.90;;;11.80;99.90;;;;;;5112711;28;20337;-71
2021/11/09 12:28:07;;;;;;;43.72;16.85;;;11.80;99.90;;;;;;5091493;28;20042;-71
2021/11/09 12:30:33;;;;;;;44.75;18.38;;;11.80;99.90;;;;;;5109634;28;20314;-71
2021/11/09 12:33:17;;;;;;;42.13;17.15;;;11.90;99.90;;;;;;5110867;28;20027;-71
2021/11/09 12:35:48;;;;;;;38.35;17.60;;;11.90;99.90;;;;;;5114653;28;20024;-72
2021/11/09 12:38:21;;;;;;;39.80;17.38;;;11.80;99.90;;;;;;5113279;28;20210;-70
2021/11/09 12:40:50;;;;;;;39.15;17.95;;;11.80;99.90;;;;;;5113291;28;20077;-72
2021/11/09 12:43:28;;;;;;;39.63;18.00;;;11.80;99.90;;;;;;5110260;28;20108;-71
2021/11/09 12:46:02;;;;;;;45.60;18.42;;;11.80;99.90;;;;;;5111942;28;20182;-71
2021/11/09 12:48:34;;;;;;;42.58;18.85;;;11.90;99.90;;;;;;5113313;28;20027;-72
2021/11/09 12:51:06;;;;;;;43.70;19.60;;;11.90;99.90;;;;;;5111175;28;20352;-71
2021/11/09 12:53:36;;;;;;;48.70;19.25;;;11.90;99.90;;;;;;5112613;28;20389;-71
2021/11/09 12:56:29;;;;;;;52.03;20.48;;;11.90;99.90;;;;;;5112525;28;20015;-72
2021/11/09 12:59:03;;;;;;;57.20;22.67;;;11.90;99.90;;;;;;5079066;28;20097;-72
2021/11/09 13:01:36;;;;;;;57.53;22.83;;;11.90;99.90;;;;;;5111959;27;20029;-71
2021/11/09 13:04:31;;;;;;;53.45;23.40;;;12.00;99.90;;;;;;5094209;28;20031;-71
2021/11/09 13:09:38;;;;;;;66.18;25.30;;;11.90;99.90;;;;;;5113257;28;20026;-71
2021/11/09 13:12:09;;;;;;;64.25;25.42;;;11.90;99.90;;;;;;5112830;28;20124;-72
2021/11/09 13:14:44;;;;;;;65.43;25.60;;;12.00;99.90;;;;;;5087591;28;20039;-72
2021/11/09 13:17:12;;;;;;;67.90;25.73;;;11.90;99.90;;;;;;5113672;28;20038;-71
2021/11/09 13:19:42;;;;;;;71.88;26.50;;;12.00;99.90;;;;;;5112579;28;20020;-71
2021/11/09 13:22:12;;;;;;;56.35;23.50;;;12.00;99.90;;;;;;5112870;28;20359;-71
2021/11/09 13:24:39;;;;;;;;;;;12.00;99.90;;;;;;5113909;28;20028;-70
2021/11/09 13:27:09;;;;;;;63.22;25.30;;;12.00;99.90;;;;;;5112679;28;19918;-70
2021/11/09 13:29:44;;;;;;;60.95;25.20;;;12.00;99.90;;;;;;5108783;28;20019;-70
2021/11/09 13:32:10;;;;;;;62.78;26.48;;;12.00;99.90;;;;;;5112089;28;20627;-71
2021/11/09 13:34:38;;;;;;;62.50;26.17;;;12.00;99.90;;;;;;5113307;28;20035;-70
2021/11/09 13:37:03;;;;;;;80.25;28.42;;;12.10;99.90;;;;;;5112322;28;20027;-71
2021/11/09 13:39:29;;;;;;;61.90;27.40;;;12.10;99.90;;;;;;5094329;28;20115;-71
2021/11/09 13:41:55;;;;;;;70.50;26.83;;;12.10;99.90;;;;;;5112168;28;20052;-71
2021/11/09 13:44:21;;;;;;;65.57;28.67;;;12.10;99.90;;;;;;5111773;28;20024;-71
2021/11/09 13:46:47;;;;;;;76.88;26.52;;;12.10;99.90;;;;;;5112326;28;20482;-71
2021/11/09 13:49:16;;;;;;;67.05;26.58;;;12.20;99.90;;;;;;5113037;28;20076;-70
2021/11/09 13:51:50;;;;;;;81.18;28.67;;;12.20;99.90;;;;;;5112344;28;20091;-71
2021/11/09 13:54:23;;;;;;;82.15;28.33;;;12.20;99.90;;;;;;5112020;28;20027;-71
2021/11/09 13:56:52;;;;;;;78.60;26.33;;;12.20;99.90;;;;;;5111659;28;20269;-71
2021/11/09 13:59:34;;;;;;;75.80;27.48;;;12.20;99.90;;;;;;5112228;28;20411;-71
2021/11/09 14:15:50;;;;;;;92.18;29.98;;;12.30;99.90;;;;;;5112197;28;20418;-71
2021/11/09 14:18:19;;;;;;;78.28;31.25;;;12.30;99.90;;;;;;5112341;28;20031;-71
2021/11/09 14:20:53;;;;;;;78.57;30.15;;;12.40;99.90;;;;;;5110561;28;20255;-70
2021/11/09 14:23:37;;;;;;;87.18;29.23;;;12.40;99.90;;;;;;5112077;28;20050;-70
2021/11/09 14:26:25;;;;;;;84.85;28.33;;;12.30;99.90;;;;;;5107826;28;20020;-71
2021/11/09 14:28:53;;;;;;;86.22;28.85;;;12.40;99.90;;;;;;5100900;28;20253;-70
2021/11/09 14:31:26;;;;;;;81.65;26.33;;;12.40;99.90;;;;;;5107679;28;20055;-70
2021/11/09 14:34:09;;;;;;;78.28;25.42;;;12.40;99.90;;;;;;5107664;28;20036;-71
2021/11/09 14:36:36;;;;;;;78.05;27.25;;;12.40;99.90;;;;;;5110600;28;20050;-71
2021/11/09 14:39:12;;;;;;;66.22;24.67;;;12.50;99.90;;;;;;5107775;28;20143;-71
2021/11/09 14:42:11;;;;;;;70.28;25.17;;;12.50;99.90;;;;;;5092184;28;20076;-71
2021/11/09 14:44:59;;;;;;;89.72;26.30;;;12.50;99.90;;;;;;5107922;28;20081;-70
2021/11/09 14:47:26;;;;;;;79.07;23.95;;;12.50;99.90;;;;;;5109598;28;20080;-71
2021/11/09 14:50:10;;;;;;;63.85;22.13;;;12.50;99.90;;;;;;5109229;28;20046;-71
2021/11/09 14:52:39;;;;;;;69.65;22.80;;;12.50;99.90;;;;;;5109724;28;20117;-71
2021/11/09 14:55:25;;;;;;;61.55;20.35;;;12.60;99.90;;;;;;5111050;28;20225;-71
2021/11/09 14:57:51;;;;;;;62.78;20.08;;;12.60;99.90;;;;;;5111572;28;20020;-71
2021/11/09 15:00:18;;;;;;;58.30;18.98;;;12.60;99.90;;;;;;5109931;28;20020;-71
2021/11/09 15:02:45;;;;;;;52.47;18.40;;;12.60;99.90;;;;;;5109479;28;20059;-70
2021/11/09 15:05:22;;;;;;;46.42;17.20;;;12.60;99.90;;;;;;5111683;28;20027;-71
2021/11/09 15:13:19;;;;;;;55.92;17.67;;;12.70;99.90;;;;;;5108535;28;20034;-70
2021/11/09 15:29:44;;;;;;;44.45;15.80;;;12.70;99.90;;;;;;5072442;28;20035;-71
2021/11/09 15:32:12;;;;;;;52.13;16.13;;;12.70;99.90;;;;;;5112584;28;20246;-70
2021/11/09 15:39:30;;;;;;;41.28;15.40;;;12.70;99.90;;;;;;5090497;28;20134;-71
2021/11/09 15:42:00;;;;;;;42.90;16.30;;;12.70;99.90;;;;;;5089959;28;20032;-70
2021/11/09 15:44:28;;;;;;;45.50;14.77;;;12.70;99.90;;;;;;5090593;28;20326;-71
2021/11/09 15:46:55;;;;;;;46.35;15.73;;;12.70;99.90;;;;;;5089080;28;20097;-71